Time;durP1;ratioP1;P1;durP2;ratioP2;P2;SDS_P1;SDS_P2;PMS_P1;PMS_P2;Temp;Humidity;BMP_temperature;BMP_pressure;BME280_temperature;BME280_humidity;BME280_pressure;Samples;Min_cycle;Max_cycle;Signal;HPM_P1;HPM_P2
2021/03/21 00:00:48;;;;;;;14.20;8.97;;;;;;;7.04;73.70;101410.38;5062119;28;20442;-73
2021/03/21 00:03:14;;;;;;;10.27;7.00;;;;;;;6.81;73.47;101396.59;5061396;28;20512;-74
2021/03/21 00:05:40;;;;;;;7.80;6.90;;;;;;;7.08;73.34;101396.69;5062252;28;20424;-72
2021/03/21 00:08:12;;;;;;;7.50;6.70;;;;;;;6.76;75.09;101384.31;5062276;28;20702;-73
2021/03/21 00:10:37;;;;;;;9.30;6.90;;;;;;;7.08;73.52;101385.44;5061758;28;20174;-73
2021/03/21 00:13:03;;;;;;;7.47;6.40;;;;;;;7.41;72.28;101382.22;5062771;28;20415;-73
2021/03/21 00:15:29;;;;;;;8.67;6.20;;;;;;;7.13;73.03;101372.63;5063096;28;20255;-73
2021/03/21 00:17:55;;;;;;;7.57;6.77;;;;;;;7.10;73.15;101385.50;5062501;28;20408;-73
2021/03/21 00:20:25;;;;;;;6.77;6.07;;;;;;;7.04;73.58;101375.81;5061776;28;20430;-73
2021/03/21 00:22:51;;;;;;;6.63;5.93;;;;;;;7.18;73.57;101373.66;5060311;28;20475;-73
2021/03/21 00:25:18;;;;;;;8.00;6.20;;;;;;;6.65;74.05;101371.84;5061098;28;20458;-73
2021/03/21 00:27:44;;;;;;;8.00;6.53;;;;;;;7.30;73.42;101379.25;5062191;28;20174;-72
2021/03/21 00:30:12;;;;;;;6.43;5.70;;;;;;;6.86;73.90;101370.84;5062916;28;20835;-72
2021/03/21 00:32:37;;;;;;;6.93;5.93;;;;;;;7.31;72.90;101362.88;5060893;28;20235;-74
2021/03/21 00:35:04;;;;;;;6.80;6.10;;;;;;;7.58;71.60;101359.41;5060712;28;20420;-73
2021/03/21 00:37:29;;;;;;;7.43;5.73;;;;;;;6.88;74.23;101361.41;5060861;28;20419;-72
2021/03/21 00:39:54;;;;;;;10.33;6.00;;;;;;;7.32;73.02;101356.88;5060833;28;20570;-72
2021/03/21 00:42:20;;;;;;;6.87;5.70;;;;;;;7.33;73.01;101348.22;5061087;28;20186;-72
2021/03/21 00:44:45;;;;;;;6.53;5.57;;;;;;;7.66;72.57;101339.78;5060878;28;20252;-72
2021/03/21 00:47:10;;;;;;;6.40;5.43;;;;;;;7.21;73.43;101330.56;5060693;28;20535;-72
2021/03/21 00:49:35;;;;;;;6.40;5.80;;;;;;;7.30;72.31;101329.13;5061383;28;20204;-72
2021/03/21 00:52:01;;;;;;;8.07;6.20;;;;;;;7.02;73.65;101317.81;5060667;28;20182;-74
2021/03/21 00:54:26;;;;;;;6.50;5.30;;;;;;;7.32;73.13;101314.47;5060477;28;20307;-72
2021/03/21 00:56:52;;;;;;;7.57;5.70;;;;;;;7.41;72.88;101307.88;5060874;28;20311;-72
2021/03/21 00:59:17;;;;;;;9.43;6.20;;;;;;;6.97;73.91;101307.31;5062527;28;20448;-72
2021/03/21 01:01:42;;;;;;;7.20;5.83;;;;;;;7.08;74.25;101300.75;5062661;28;20205;-73
2021/03/21 01:04:08;;;;;;;7.90;6.00;;;;;;;7.29;73.98;101283.25;5061005;28;20180;-73
2021/03/21 01:06:33;;;;;;;8.63;7.40;;;;;;;6.88;74.57;101286.25;5060294;28;20192;-74
2021/03/21 01:09:03;;;;;;;10.60;8.23;;;;;;;7.17;74.57;101283.72;5060416;28;20208;-72
2021/03/21 01:11:31;;;;;;;9.27;8.07;;;;;;;7.18;74.26;101286.38;5060638;28;20430;-72
2021/03/21 01:13:57;;;;;;;10.00;8.07;;;;;;;7.65;72.48;101280.06;5060241;28;20726;-72
2021/03/21 01:16:26;;;;;;;9.73;7.50;;;;;;;7.47;72.93;101280.34;5059621;28;20412;-72
2021/03/21 01:18:52;;;;;;;10.13;7.93;;;;;;;7.58;72.30;101282.44;5060598;28;20444;-73
2021/03/21 01:21:18;;;;;;;10.80;8.03;;;;;;;7.31;74.07;101281.59;5059149;28;20448;-73
2021/03/21 01:23:45;;;;;;;10.77;8.20;;;;;;;7.67;72.73;101279.25;5061453;28;20420;-72
2021/03/21 01:26:19;;;;;;;10.63;7.90;;;;;;;7.47;73.77;101280.34;5065319;28;20491;-73
2021/03/21 01:28:44;;;;;;;9.60;7.40;;;;;;;7.70;72.40;101281.94;5060209;28;20461;-72
2021/03/21 01:31:13;;;;;;;10.60;7.53;;;;;;;7.26;74.01;101276.25;5059766;28;20444;-71
2021/03/21 01:33:38;;;;;;;11.90;8.20;;;;;;;7.38;74.10;101271.44;5060001;28;20218;-72
2021/03/21 01:36:09;;;;;;;10.33;7.77;;;;;;;6.86;75.61;101267.16;5059907;28;20412;-71
2021/03/21 01:38:34;;;;;;;8.47;7.53;;;;;;;7.00;76.09;101252.97;5062437;28;20223;-72
2021/03/21 01:41:03;;;;;;;9.80;7.43;;;;;;;7.17;75.97;101255.22;5065473;28;20424;-72
2021/03/21 01:43:31;;;;;;;11.33;7.17;;;;;;;7.27;74.85;101252.09;5061541;28;20176;-73
2021/03/21 01:45:57;;;;;;;11.00;7.83;;;;;;;7.22;75.47;101245.88;5060826;28;20424;-72
2021/03/21 01:48:52;;;;;;;11.30;7.80;;;;;;;7.21;75.02;101237.22;5059711;28;20806;-71
2021/03/21 01:51:22;;;;;;;9.00;8.00;;;;;;;7.44;74.85;101229.25;5058800;28;20493;-71
2021/03/21 01:53:51;;;;;;;10.70;8.10;;;;;;;7.45;74.98;101220.63;5058793;28;20420;-72
2021/03/21 01:56:17;;;;;;;9.90;8.10;;;;;;;7.55;74.26;101221.78;5058833;28;20440;-71
2021/03/21 01:58:44;;;;;;;9.10;7.87;;;;;;;7.35;75.13;101224.69;5059834;28;20834;-73
2021/03/21 02:01:12;;;;;;;9.30;7.47;;;;;;;7.19;75.77;101225.03;5058510;28;20180;-71
2021/03/21 02:03:38;;;;;;;12.43;8.60;;;;;;;7.51;74.45;101217.34;5059458;28;20400;-72
2021/03/21 02:06:34;;;;;;;8.50;7.60;;;;;;;7.22;75.63;101223.41;5060031;28;20423;-72
2021/03/21 02:09:22;;;;;;;8.50;7.60;;;;;;;7.40;75.67;101232.59;5058608;28;20173;-71
2021/03/21 02:12:14;;;;;;;9.67;7.07;;;;;;;7.39;75.20;101215.28;5058529;28;20427;-71
2021/03/21 02:15:38;;;;;;;8.90;6.83;;;;;;;8.11;72.96;101228.59;5059219;28;20416;-71
2021/03/21 02:18:36;;;;;;;10.60;7.07;;;;;;;7.27;75.36;101210.59;5060997;28;20502;-72
2021/03/21 02:21:25;;;;;;;7.70;6.30;;;;;;;7.65;75.11;101205.66;5077471;28;20419;-72
2021/03/21 02:24:09;;;;;;;7.47;6.40;;;;;;;7.81;74.28;101199.19;5059388;28;20720;-72
2021/03/21 02:26:56;;;;;;;6.50;5.80;;;;;;;7.95;73.24;101204.78;5058648;28;20460;-73
2021/03/21 02:29:27;;;;;;;9.03;5.80;;;;;;;7.83;73.81;101202.72;5059167;28;20431;-71
2021/03/21 02:31:59;;;;;;;6.20;5.27;;;;;;;7.48;74.77;101199.09;5058832;28;20452;-72
2021/03/21 02:34:50;;;;;;;6.20;5.60;;;;;;;7.42;74.86;101186.84;5058013;28;20453;-71
2021/03/21 02:37:23;;;;;;;5.80;5.07;;;;;;;7.35;75.54;101188.38;5058581;28;20801;-72
2021/03/21 02:40:00;;;;;;;6.03;4.80;;;;;;;7.33;75.27;101179.63;5058728;28;20780;-73
2021/03/21 02:42:33;;;;;;;5.00;4.50;;;;;;;7.46;74.95;101180.03;5057917;28;20416;-72
2021/03/21 02:45:11;;;;;;;5.50;4.90;;;;;;;7.38;74.93;101175.47;5057834;28;20543;-72
2021/03/21 02:47:38;;;;;;;5.10;4.57;;;;;;;7.32;74.74;101167.53;5058118;28;20416;-72
2021/03/21 02:50:09;;;;;;;5.27;4.77;;;;;;;7.41;74.98;101161.72;5058043;28;20416;-72
2021/03/21 02:52:38;;;;;;;4.83;4.43;;;;;;;7.64;73.37;101149.41;5058643;28;20456;-71
2021/03/21 02:55:32;;;;;;;7.20;4.73;;;;;;;7.54;73.62;101157.78;5057982;28;20416;-73
2021/03/21 02:58:19;;;;;;;4.97;4.57;;;;;;;7.14;74.93;101144.50;5057270;28;20412;-73
2021/03/21 03:00:50;;;;;;;5.43;4.40;;;;;;;7.30;74.08;101130.28;5058344;28;20485;-72
2021/03/21 03:03:18;;;;;;;4.63;4.13;;;;;;;7.02;75.17;101144.13;5057624;28;20432;-72
2021/03/21 03:05:48;;;;;;;7.33;4.40;;;;;;;7.53;73.05;101145.63;5058313;28;20431;-71
2021/03/21 03:08:37;;;;;;;7.13;4.37;;;;;;;7.80;72.56;101145.53;5057682;28;20821;-72
2021/03/21 03:11:09;;;;;;;8.60;5.13;;;;;;;7.63;72.85;101141.59;5058368;28;20465;-72
2021/03/21 03:13:39;;;;;;;6.93;4.80;;;;;;;7.66;72.51;101141.66;5057932;28;20887;-72
2021/03/21 03:16:20;;;;;;;7.10;4.67;;;;;;;7.71;72.79;101134.88;5057346;28;20415;-71
2021/03/21 03:19:05;;;;;;;7.43;4.40;;;;;;;7.75;72.25;101142.81;5057437;28;21114;-71
2021/03/21 03:21:45;;;;;;;8.67;5.37;;;;;;;7.56;73.06;101117.19;5062594;28;20416;-74
2021/03/21 03:24:42;;;;;;;9.03;5.27;;;;;;;7.54;73.16;101113.69;5058581;28;20469;-70
2021/03/21 03:27:39;;;;;;;7.90;5.10;;;;;;;7.49;73.68;101105.75;5065849;28;20489;-71
2021/03/21 03:30:10;;;;;;;9.10;5.80;;;;;;;7.90;71.87;101102.50;5056952;28;20474;-72
2021/03/21 03:32:35;;;;;;;7.90;5.70;;;;;;;7.48;73.66;101105.72;5057210;28;20716;-71
2021/03/21 03:35:01;;;;;;;8.07;4.80;;;;;;;7.85;71.90;101114.53;5057888;28;20546;-71
2021/03/21 03:37:27;;;;;;;7.77;5.70;;;;;;;7.46;73.13;101099.63;5057374;28;20303;-71
2021/03/21 03:39:52;;;;;;;8.70;5.40;;;;;;;7.06;75.00;101094.13;5064090;28;20208;-71
2021/03/21 03:42:44;;;;;;;8.80;5.70;;;;;;;7.45;73.92;101087.47;5062162;28;20170;-70
2021/03/21 03:45:12;;;;;;;8.50;5.50;;;;;;;7.24;74.69;101084.31;5057707;28;20261;-71
2021/03/21 03:47:52;;;;;;;9.93;5.00;;;;;;;6.67;76.26;101092.09;5057040;28;20435;-71
2021/03/21 03:50:47;;;;;;;6.90;4.57;;;;;;;6.82;75.06;101077.03;5058332;28;20495;-72
2021/03/21 03:53:29;;;;;;;5.73;4.17;;;;;;;7.21;74.05;101079.03;5057014;28;20494;-72
2021/03/21 03:56:03;;;;;;;8.37;4.93;;;;;;;7.63;72.92;101080.22;5057736;28;20423;-73
2021/03/21 03:58:53;;;;;;;7.30;4.70;;;;;;;7.47;73.70;101070.22;5056823;28;20471;-72
2021/03/21 04:01:32;;;;;;;7.60;4.50;;;;;;;7.36;73.82;101073.41;5057451;28;20400;-72
2021/03/21 04:04:07;;;;;;;9.07;5.00;;;;;;;7.13;74.43;101071.84;5056854;28;20445;-72
2021/03/21 04:06:54;;;;;;;12.47;5.13;;;;;;;7.62;72.69;101072.34;5057198;28;20687;-72
2021/03/21 04:09:27;;;;;;;7.47;4.53;;;;;;;7.32;72.81;101062.88;5057984;28;20806;-73
2021/03/21 04:12:05;;;;;;;11.57;5.20;;;;;;;7.70;72.18;101061.34;5056983;28;20435;-72
2021/03/21 04:14:39;;;;;;;14.13;5.57;;;;;;;7.67;71.45;101057.78;5057797;28;20419;-72
2021/03/21 04:17:30;;;;;;;6.90;4.80;;;;;;;7.58;71.72;101053.25;5057166;28;20419;-72
2021/03/21 04:20:14;;;;;;;8.50;4.93;;;;;;;7.51;71.87;101066.88;5057050;28;20551;-72
2021/03/21 04:22:52;;;;;;;8.30;5.00;;;;;;;7.81;70.13;101058.19;5056763;28;20526;-72
2021/03/21 04:25:23;;;;;;;13.00;4.77;;;;;;;7.62;70.23;101047.31;5056708;28;20412;-71
2021/03/21 04:28:04;;;;;;;15.40;6.10;;;;;;;7.48;70.16;101046.03;5056736;28;20427;-72
2021/03/21 04:30:39;;;;;;;8.60;4.40;;;;;;;7.30;70.92;101043.84;5056979;28;20412;-71
2021/03/21 04:33:08;;;;;;;9.77;5.00;;;;;;;7.39;70.44;101039.78;5060196;28;20468;-73
2021/03/21 04:35:36;;;;;;;8.47;4.23;;;;;;;7.25;70.94;101052.38;5043635;28;20416;-71
2021/03/21 04:38:10;;;;;;;11.23;4.93;;;;;;;7.37;70.89;101050.94;5060256;28;20412;-71
2021/03/21 04:40:36;;;;;;;11.17;4.73;;;;;;;7.67;69.40;101042.22;5060273;28;20416;-72
2021/03/21 04:43:06;;;;;;;11.57;4.90;;;;;;;7.78;69.15;101038.22;5060161;28;20858;-72
2021/03/21 04:45:34;;;;;;;13.63;5.17;;;;;;;7.63;68.90;101048.16;5060717;28;20232;-71
2021/03/21 04:48:04;;;;;;;12.87;5.13;;;;;;;7.27;69.60;101043.75;5060352;28;20431;-71
2021/03/21 04:50:31;;;;;;;15.60;5.30;;;;;;;7.62;68.69;101054.19;5060838;28;20412;-72
2021/03/21 04:53:14;;;;;;;11.10;5.00;;;;;;;7.73;68.26;101057.97;5060357;28;20642;-72
2021/03/21 04:55:42;;;;;;;14.73;5.20;;;;;;;7.17;69.20;101078.88;5060004;28;20709;-74
2021/03/21 04:58:44;;;;;;;12.00;5.10;;;;;;;6.88;70.52;101055.59;5059781;28;20753;-72
2021/03/21 05:01:13;;;;;;;17.40;5.87;;;;;;;6.80;67.41;101083.00;5063446;28;20663;-71
2021/03/21 05:03:48;;;;;;;14.63;5.20;;;;;;;7.00;66.05;101076.69;5059828;28;20798;-71
2021/03/21 05:06:48;;;;;;;17.73;6.37;;;;;;;7.11;64.16;101078.72;5059849;28;20407;-72
2021/03/21 05:09:17;;;;;;;22.03;5.43;;;;;;;7.04;62.67;101093.22;5059855;28;20428;-72
2021/03/21 05:11:47;;;;;;;17.30;6.53;;;;;;;6.74;62.79;101099.25;5060678;28;20505;-72
2021/03/21 05:14:41;;;;;;;17.30;6.80;;;;;;;6.93;63.52;101108.44;5060333;28;20501;-72
2021/03/21 05:17:25;;;;;;;21.83;5.87;;;;;;;6.43;64.26;101105.13;5062434;28;20428;-74
2021/03/21 05:19:57;;;;;;;15.37;5.80;;;;;;;6.57;62.84;101106.47;5060675;28;20485;-72
2021/03/21 05:22:41;;;;;;;23.23;7.53;;;;;;;6.73;61.76;101103.53;5059931;28;20479;-71
2021/03/21 05:25:23;;;;;;;21.13;7.03;;;;;;;6.54;61.90;101111.56;5060005;28;20408;-73
2021/03/21 05:27:55;;;;;;;20.37;6.30;;;;;;;6.78;60.90;101095.00;5059532;28;20419;-72
2021/03/21 05:30:25;;;;;;;22.03;6.10;;;;;;;6.70;60.87;101093.06;5059496;28;20424;-72
2021/03/21 05:32:51;;;;;;;20.30;7.87;;;;;;;6.33;60.47;101091.91;5059944;28;20732;-73
2021/03/21 05:35:22;;;;;;;23.47;6.80;;;;;;;6.47;61.60;101078.50;5059583;28;20822;-71
2021/03/21 05:38:40;;;;;;;20.80;6.77;;;;;;;6.93;60.55;101082.53;5060139;28;20499;-72
2021/03/21 05:41:08;;;;;;;24.30;7.20;;;;;;;6.44;59.29;101079.31;5058419;28;20502;-72
2021/03/21 05:43:40;;;;;;;23.13;7.60;;;;;;;6.46;59.81;101079.34;5057833;28;20416;-72
2021/03/21 05:46:42;;;;;;;17.73;6.63;;;;;;;6.85;59.38;101094.38;5059232;28;20481;-72
2021/03/21 05:49:20;;;;;;;22.13;6.57;;;;;;;7.15;57.86;101097.00;5059847;28;20497;-72
2021/03/21 05:52:12;;;;;;;27.50;7.30;;;;;;;6.93;58.80;101100.69;5059727;28;20417;-71
2021/03/21 05:54:59;;;;;;;31.80;7.03;;;;;;;7.58;57.01;101112.94;5059569;28;20461;-72
2021/03/21 05:57:30;;;;;;;28.30;8.13;;;;;;;7.30;58.06;101106.06;5059918;28;20669;-73
2021/03/21 06:00:11;;;;;;;22.53;7.83;;;;;;;7.38;58.38;101109.75;5059346;28;20456;-72
2021/03/21 06:03:07;;;;;;;21.63;7.20;;;;;;;7.30;59.10;101119.03;5059201;28;20419;-72
2021/03/21 06:06:01;;;;;;;23.63;7.83;;;;;;;6.74;61.11;101123.44;5058536;28;20415;-72
2021/03/21 06:08:30;;;;;;;19.53;7.40;;;;;;;6.81;61.77;101121.91;5059712;28;20427;-73
2021/03/21 06:11:17;;;;;;;25.20;7.50;;;;;;;7.04;61.03;101119.16;5058699;28;20442;-72
2021/03/21 06:14:07;;;;;;;24.57;7.80;;;;;;;6.72;61.95;101121.63;5059290;28;20416;-72
2021/03/21 06:17:10;;;;;;;26.97;8.47;;;;;;;7.54;60.50;101132.69;5058755;28;20412;-71
2021/03/21 06:20:12;;;;;;;23.40;7.73;;;;;;;7.50;61.36;101141.25;5059588;28;20745;-72
2021/03/21 06:23:06;;;;;;;28.67;7.90;;;;;;;6.88;60.97;101143.72;5059214;28;20424;-71
2021/03/21 06:25:53;;;;;;;25.63;7.30;;;;;;;7.05;61.46;101139.94;5059311;28;20455;-70
2021/03/21 06:28:22;;;;;;;19.43;7.60;;;;;;;7.40;59.73;101132.31;5058907;28;20408;-71
2021/03/21 06:31:00;;;;;;;25.10;7.60;;;;;;;7.28;59.73;101133.66;5059225;28;20411;-72
2021/03/21 06:33:30;;;;;;;22.37;7.53;;;;;;;6.98;60.74;101134.50;5059048;28;20812;-72
2021/03/21 06:36:07;;;;;;;31.23;8.90;;;;;;;7.23;59.25;101128.34;5058658;28;20411;-71
2021/03/21 06:39:00;;;;;;;23.67;8.10;;;;;;;7.23;60.45;101134.41;5057790;28;20742;-72
2021/03/21 06:42:02;;;;;;;23.90;8.17;;;;;;;7.63;58.73;101138.97;5058640;28;20439;-72
2021/03/21 06:44:36;;;;;;;26.07;8.63;;;;;;;6.99;59.97;101144.91;5057720;28;20404;-72
2021/03/21 06:47:23;;;;;;;26.90;8.40;;;;;;;7.01;60.66;101153.63;5058746;28;20401;-71
2021/03/21 06:50:05;;;;;;;32.30;8.93;;;;;;;7.75;58.59;101153.19;5058111;28;20431;-72
2021/03/21 06:52:52;;;;;;;27.27;8.83;;;;;;;8.18;56.87;101150.84;5058722;28;20412;-71
2021/03/21 06:55:27;;;;;;;20.70;8.17;;;;;;;7.74;58.42;101146.25;5059391;28;20404;-72
2021/03/21 06:58:30;;;;;;;27.80;8.27;;;;;;;8.01;58.16;101155.63;5058512;28;20408;-73
2021/03/21 07:01:00;;;;;;;31.37;7.77;;;;;;;7.28;59.71;101164.78;5058267;28;20474;-71
2021/03/21 07:03:47;;;;;;;24.37;7.60;;;;;;;8.70;55.79;101155.63;5058451;28;20440;-72
2021/03/21 07:06:50;;;;;;;20.77;7.57;;;;;;;9.30;53.54;101149.19;5057556;28;20420;-72
2021/03/21 07:09:16;;;;;;;23.30;7.53;;;;;;;9.04;54.52;101149.50;5058470;28;20423;-71
2021/03/21 07:12:05;;;;;;;33.17;8.50;;;;;;;10.07;52.32;101148.13;5061145;28;20830;-72
2021/03/21 07:14:48;;;;;;;25.40;9.00;;;;;;;10.11;51.26;101149.06;5059325;28;20261;-75
2021/03/21 07:17:42;;;;;;;30.43;8.87;;;;;;;10.19;51.37;101143.97;5058167;28;20438;-71
2021/03/21 07:20:22;;;;;;;31.30;10.43;;;;;;;10.05;51.26;101149.81;5058054;28;20467;-72
2021/03/21 07:23:22;;;;;;;30.50;10.00;;;;;;;9.59;52.08;101151.53;5058060;28;20447;-73
2021/03/21 07:25:50;;;;;;;26.20;8.10;;;;;;;9.66;51.88;101160.34;5057412;28;20439;-71
2021/03/21 07:28:37;;;;;;;27.83;9.20;;;;;;;9.02;53.81;101164.19;5057920;28;20738;-72
2021/03/21 07:31:14;;;;;;;31.03;8.30;;;;;;;9.95;51.76;101161.78;5057959;28;20740;-72
2021/03/21 07:33:48;;;;;;;20.77;7.87;;;;;;;9.89;52.83;101169.50;5058220;28;20447;-71
2021/03/21 07:36:25;;;;;;;31.03;9.60;;;;;;;9.69;52.31;101171.69;5058007;28;20825;-72
2021/03/21 07:39:23;;;;;;;25.33;8.50;;;;;;;10.05;51.65;101159.34;5058006;28;20470;-72
2021/03/21 07:42:14;;;;;;;30.33;10.20;;;;;;;9.81;51.79;101152.84;5068743;28;20416;-72
2021/03/21 07:45:06;;;;;;;28.27;9.73;;;;;;;9.81;52.67;101151.94;5061751;28;20439;-73
2021/03/21 07:47:51;;;;;;;30.13;9.77;;;;;;;9.56;52.69;101149.72;5062750;28;20800;-73
2021/03/21 07:50:29;;;;;;;26.20;8.13;;;;;;;9.97;51.37;101150.53;5060251;28;20424;-73
2021/03/21 07:53:04;;;;;;;31.73;8.87;;;;;;;10.38;50.31;101145.22;5057239;28;20486;-75
2021/03/21 07:55:47;;;;;;;28.37;9.67;;;;;;;9.88;51.83;101153.84;5057662;28;20839;-72
2021/03/21 07:58:24;;;;;;;40.40;9.10;;;;;;;10.18;51.02;101160.47;5057737;28;20485;-72
2021/03/21 08:00:49;;;;;;;31.27;8.53;;;;;;;9.82;50.58;101159.78;5056908;28;20420;-72
2021/03/21 08:03:22;;;;;;;18.97;7.70;;;;;;;9.66;51.90;101157.72;5057584;28;20466;-71
2021/03/21 08:05:55;;;;;;;27.87;9.80;;;;;;;10.59;48.98;101156.00;5057020;28;20193;-72
2021/03/21 08:08:26;;;;;;;30.77;9.90;;;;;;;11.48;47.41;101157.25;5061700;28;20665;-72
2021/03/21 08:10:58;;;;;;;32.47;9.73;;;;;;;11.72;47.44;101162.78;5060911;28;20446;-73
2021/03/21 08:13:44;;;;;;;28.20;7.83;;;;;;;11.36;46.62;101155.34;5061550;28;20419;-74
2021/03/21 08:16:14;;;;;;;23.10;7.37;;;;;;;12.49;44.83;101159.19;5061538;28;20507;-72
2021/03/21 08:18:43;;;;;;;24.83;8.60;;;;;;;12.39;44.89;101150.41;5060675;28;20857;-72
2021/03/21 08:21:15;;;;;;;26.00;9.87;;;;;;;11.75;46.47;101167.16;5060613;28;20721;-71
2021/03/21 08:23:42;;;;;;;23.77;7.93;;;;;;;12.26;45.20;101165.13;5061473;28;20792;-72
2021/03/21 08:26:12;;;;;;;23.20;7.73;;;;;;;11.53;46.60;101176.44;5061206;28;20521;-73
2021/03/21 08:29:03;;;;;;;25.47;8.97;;;;;;;12.33;44.25;101169.53;5061207;28;20420;-72
2021/03/21 08:31:39;;;;;;;25.33;8.70;;;;;;;12.72;43.49;101167.22;5061073;28;20470;-73
2021/03/21 08:34:43;;;;;;;26.03;9.20;;;;;;;10.92;46.56;101182.59;5061386;28;20449;-71
2021/03/21 08:37:27;;;;;;;22.30;7.80;;;;;;;11.31;46.64;101189.22;5059630;28;20462;-74
2021/03/21 08:39:59;;;;;;;21.50;9.60;;;;;;;12.14;44.18;101181.56;5061384;28;20460;-72
2021/03/21 08:42:42;;;;;;;26.70;7.90;;;;;;;11.95;44.58;101193.53;5060807;28;20416;-72
2021/03/21 08:45:13;;;;;;;19.40;7.13;;;;;;;12.70;43.02;101185.53;5060386;28;20419;-75
2021/03/21 08:47:39;;;;;;;21.20;6.90;;;;;;;10.95;45.55;101199.16;5060850;28;20444;-74
2021/03/21 08:50:10;;;;;;;24.90;7.73;;;;;;;12.42;43.32;101187.94;5059871;28;20560;-76
2021/03/21 08:52:43;;;;;;;20.87;7.20;;;;;;;11.87;43.33;101197.78;5059931;28;20435;-73
2021/03/21 08:55:34;;;;;;;26.07;8.80;;;;;;;11.83;44.07;101196.84;5061716;28;20398;-72
2021/03/21 08:58:25;;;;;;;19.70;6.80;;;;;;;12.37;41.40;101200.06;5060345;28;20427;-72
2021/03/21 09:00:51;;;;;;;25.33;7.30;;;;;;;13.48;39.36;101197.44;5060737;28;20420;-73
2021/03/21 09:03:27;;;;;;;21.13;7.43;;;;;;;14.01;38.33;101198.50;5059820;28;20393;-73
2021/03/21 09:05:56;;;;;;;19.50;7.17;;;;;;;14.03;38.20;101196.78;5045270;28;20211;-73
2021/03/21 09:08:23;;;;;;;26.40;7.60;;;;;;;14.22;37.94;101194.16;5064376;28;20391;-73
2021/03/21 09:11:01;;;;;;;19.40;6.50;;;;;;;13.56;38.82;101187.00;5060372;28;20781;-72
2021/03/21 09:13:32;;;;;;;30.10;9.80;;;;;;;12.61;40.35;101198.53;5079633;28;20468;-71
2021/03/21 09:15:58;;;;;;;18.17;6.37;;;;;;;11.91;42.48;101215.25;5080122;28;20426;-72
2021/03/21 09:18:30;;;;;;;17.60;7.20;;;;;;;11.95;42.31;101207.47;5079786;28;20461;-72
2021/03/21 09:21:16;;;;;;;17.20;7.00;;;;;;;11.29;43.89;101211.81;5080058;28;20254;-73
2021/03/21 09:23:53;;;;;;;14.53;6.43;;;;;;;11.24;44.72;101221.31;5080356;28;20452;-71
2021/03/21 09:26:20;;;;;;;16.23;6.50;;;;;;;10.87;45.83;101231.19;5080039;28;20455;-70
2021/03/21 09:28:51;;;;;;;20.13;7.40;;;;;;;12.41;42.41;101207.09;5080292;28;20493;-71
2021/03/21 09:31:17;;;;;;;18.97;7.57;;;;;;;11.67;43.75;101221.03;5079883;28;20419;-71
2021/03/21 09:34:08;;;;;;;21.17;6.30;;;;;;;12.37;42.17;101222.75;5080660;28;20391;-70
2021/03/21 09:36:42;;;;;;;15.43;5.73;;;;;;;12.99;41.35;101229.38;5076766;28;20238;-71
2021/03/21 09:39:18;;;;;;;20.93;6.57;;;;;;;13.89;39.48;101232.53;5079228;28;20461;-71
2021/03/21 09:41:48;;;;;;;11.43;5.63;;;;;;;12.33;41.94;101247.97;5081128;28;20425;-71
2021/03/21 09:44:21;;;;;;;18.73;6.90;;;;;;;13.26;41.18;101240.88;5080775;28;20403;-70
2021/03/21 09:46:53;;;;;;;17.30;5.80;;;;;;;12.25;41.70;101253.09;5080021;28;20411;-71
2021/03/21 09:49:40;;;;;;;17.63;6.10;;;;;;;12.30;42.78;101255.78;5079177;28;20407;-71
2021/03/21 09:52:14;;;;;;;18.83;6.00;;;;;;;12.59;41.22;101247.34;5079365;28;20381;-71
2021/03/21 09:54:47;;;;;;;14.60;5.90;;;;;;;12.24;41.98;101247.88;5079692;28;20863;-72
2021/03/21 09:57:33;;;;;;;16.53;6.27;;;;;;;12.56;40.70;101242.97;5079114;28;20411;-71
2021/03/21 10:00:14;;;;;;;15.33;5.97;;;;;;;12.52;40.79;101240.31;5078890;28;20895;-72
2021/03/21 10:02:45;;;;;;;13.27;6.00;;;;;;;13.22;40.04;101236.50;5079174;28;20458;-71
2021/03/21 10:05:24;;;;;;;17.23;5.80;;;;;;;13.23;39.58;101243.50;5078563;28;20472;-70
2021/03/21 10:07:54;;;;;;;14.97;5.93;;;;;;;13.23;39.95;101247.00;5078266;28;20458;-70
2021/03/21 10:10:33;;;;;;;16.97;6.70;;;;;;;12.91;40.33;101259.84;5079192;28;20803;-71
2021/03/21 10:12:58;;;;;;;18.00;6.23;;;;;;;13.54;39.30;101249.81;5078897;28;20390;-71
2021/03/21 10:15:27;;;;;;;12.77;5.63;;;;;;;13.78;39.04;101246.47;5078405;28;20408;-73
2021/03/21 10:18:35;;;;;;;15.90;6.60;;;;;;;13.85;38.26;101262.22;5078757;28;20169;-74
2021/03/21 10:21:03;;;;;;;13.47;6.00;;;;;;;14.31;37.15;101265.00;5078533;28;20410;-72
2021/03/21 10:23:47;;;;;;;19.00;6.00;;;;;;;13.79;38.92;101261.31;5078689;28;20887;-72
2021/03/21 10:26:12;;;;;;;12.47;5.80;;;;;;;13.06;39.34;101256.47;5078600;28;20654;-73
2021/03/21 10:28:44;;;;;;;16.60;5.97;;;;;;;11.56;43.40;101276.59;5078109;28;20407;-71
2021/03/21 10:31:26;;;;;;;15.80;5.80;;;;;;;12.89;40.91;101272.03;5078540;28;20165;-76
2021/03/21 10:33:54;;;;;;;16.27;6.30;;;;;;;12.98;40.64;101269.50;5079099;28;20756;-71
2021/03/21 10:36:37;;;;;;;14.77;5.60;;;;;;;12.37;41.58;101282.88;5077753;28;20411;-71
2021/03/21 10:39:04;;;;;;;20.87;5.70;;;;;;;12.41;41.48;101279.44;5078396;28;20691;-71
2021/03/21 10:41:52;;;;;;;12.80;5.80;;;;;;;13.11;41.36;101281.81;5077570;28;20403;-71
2021/03/21 10:44:19;;;;;;;15.63;7.03;;;;;;;12.50;41.65;101289.97;5078163;28;20402;-71
2021/03/21 10:46:51;;;;;;;15.33;5.90;;;;;;;13.22;40.46;101286.25;5078229;28;20393;-72
2021/03/21 10:49:51;;;;;;;12.70;5.53;;;;;;;12.67;41.31;101287.53;5078118;28;20415;-71
2021/03/21 10:52:25;;;;;;;15.43;7.20;;;;;;;12.26;42.76;101295.84;5077269;28;20412;-71
2021/03/21 10:55:12;;;;;;;19.07;8.80;;;;;;;12.76;40.53;101294.63;5078191;28;20419;-72
2021/03/21 10:57:41;;;;;;;16.77;5.87;;;;;;;11.98;42.44;101298.09;5078084;28;20395;-70
2021/03/21 11:00:20;;;;;;;13.67;6.20;;;;;;;13.45;39.80;101300.44;5078188;28;20463;-71
2021/03/21 11:03:11;;;;;;;15.97;6.20;;;;;;;13.02;40.16;101296.59;5082719;28;20832;-72
2021/03/21 11:05:44;;;;;;;12.80;5.10;;;;;;;12.95;39.87;101295.66;5077490;28;20671;-73
2021/03/21 11:08:12;;;;;;;12.83;4.90;;;;;;;12.70;42.16;101300.63;5078513;28;20426;-71
2021/03/21 11:10:43;;;;;;;12.27;5.63;;;;;;;12.58;41.06;101305.75;5078149;28;20841;-69
2021/03/21 11:13:16;;;;;;;11.17;5.03;;;;;;;12.74;41.40;101307.66;5077647;28;20481;-70
2021/03/21 11:15:45;;;;;;;16.47;5.53;;;;;;;13.42;38.92;101310.91;5077794;28;20434;-70
2021/03/21 11:18:24;;;;;;;13.60;5.70;;;;;;;14.44;37.38;101300.03;5077779;28;20425;-70
2021/03/21 11:21:01;;;;;;;15.10;5.80;;;;;;;14.25;37.17;101294.72;5077410;28;20782;-70
2021/03/21 11:23:26;;;;;;;8.13;4.83;;;;;;;14.26;37.10;101303.44;5077679;28;20409;-70
2021/03/21 11:25:52;;;;;;;12.70;5.30;;;;;;;13.26;38.17;101311.59;5076743;28;20562;-71
2021/03/21 11:28:38;;;;;;;11.27;5.10;;;;;;;13.75;38.24;101293.63;5077856;28;20165;-72
2021/03/21 11:31:06;;;;;;;10.20;4.70;;;;;;;14.87;35.40;101297.50;5077104;28;20184;-72
2021/03/21 11:33:43;;;;;;;11.97;5.70;;;;;;;15.30;34.58;101291.34;5077924;28;20411;-72
2021/03/21 11:36:20;;;;;;;13.00;5.40;;;;;;;15.27;33.60;101289.59;5078244;28;20414;-71
2021/03/21 11:38:46;;;;;;;6.87;5.00;;;;;;;14.57;34.53;101290.41;5078003;28;20558;-71
2021/03/21 11:41:18;;;;;;;8.77;4.27;;;;;;;13.91;35.42;101293.69;5079781;28;20486;-71
2021/03/21 11:43:43;;;;;;;10.10;4.97;;;;;;;13.89;35.96;101290.19;5082131;28;20184;-72
2021/03/21 11:46:17;;;;;;;11.40;4.73;;;;;;;14.65;34.80;101291.34;5082314;28;20415;-73
2021/03/21 11:48:42;;;;;;;10.97;4.90;;;;;;;14.61;34.59;101300.03;5081091;28;20165;-73
2021/03/21 11:51:09;;;;;;;10.57;5.93;;;;;;;15.53;34.46;101286.06;5082287;28;20856;-72
2021/03/21 11:53:37;;;;;;;9.90;5.43;;;;;;;15.26;33.82;101289.59;5083299;28;20164;-71
2021/03/21 11:56:19;;;;;;;13.73;4.93;;;;;;;15.34;33.56;101295.72;5083714;28;20414;-74
2021/03/21 11:58:56;;;;;;;7.73;4.60;;;;;;;15.19;34.23;101288.72;5081987;28;20440;-72
2021/03/21 12:01:37;;;;;;;11.20;5.57;;;;;;;15.24;33.49;101284.34;5081915;28;21167;-72
2021/03/21 12:04:04;;;;;;;10.27;4.83;;;;;;;15.08;34.25;101290.50;5081324;28;20455;-71
2021/03/21 12:06:48;;;;;;;10.67;4.57;;;;;;;15.20;33.70;101287.00;5081005;28;20381;-71